sensor_id;sensor_type;location;lat;lon;timestamp;temperature;humidity
8313;DHT22;4194;43.408;24.626;2023-01-19T00:02:18;15.90;73.40
8313;DHT22;4194;43.408;24.626;2023-01-19T00:04:44;15.50;73.10
8313;DHT22;4194;43.408;24.626;2023-01-19T00:07:10;15.10;72.90
8313;DHT22;4194;43.408;24.626;2023-01-19T00:09:36;15.50;73.60
8313;DHT22;4194;43.408;24.626;2023-01-19T00:12:11;14.90;73.50
8313;DHT22;4194;43.408;24.626;2023-01-19T00:14:36;13.50;72.20
8313;DHT22;4194;43.408;24.626;2023-01-19T00:17:02;15.00;73.90
8313;DHT22;4194;43.408;24.626;2023-01-19T00:19:28;15.40;75.00
8313;DHT22;4194;43.408;24.626;2023-01-19T00:21:54;15.60;75.30
8313;DHT22;4194;43.408;24.626;2023-01-19T00:24:20;14.50;74.70
8313;DHT22;4194;43.408;24.626;2023-01-19T00:26:45;15.60;75.60
8313;DHT22;4194;43.408;24.626;2023-01-19T00:29:12;14.40;74.90
8313;DHT22;4194;43.408;24.626;2023-01-19T00:31:38;14.30;75.50
8313;DHT22;4194;43.408;24.626;2023-01-19T00:34:05;15.40;77.40
8313;DHT22;4194;43.408;24.626;2023-01-19T00:36:31;13.60;76.10
8313;DHT22;4194;43.408;24.626;2023-01-19T00:38:57;13.20;76.20
8313;DHT22;4194;43.408;24.626;2023-01-19T00:41:23;13.70;76.90
8313;DHT22;4194;43.408;24.626;2023-01-19T00:44:10;13.20;78.40
8313;DHT22;4194;43.408;24.626;2023-01-19T00:46:36;14.10;80.60
8313;DHT22;4194;43.408;24.626;2023-01-19T00:49:02;14.80;81.90
8313;DHT22;4194;43.408;24.626;2023-01-19T00:51:27;13.00;81.10
8313;DHT22;4194;43.408;24.626;2023-01-19T00:53:53;13.40;82.80
8313;DHT22;4194;43.408;24.626;2023-01-19T00:56:19;13.60;83.50
8313;DHT22;4194;43.408;24.626;2023-01-19T00:58:44;13.20;84.30
8313;DHT22;4194;43.408;24.626;2023-01-19T01:01:10;13.70;85.90
8313;DHT22;4194;43.408;24.626;2023-01-19T01:03:36;13.70;87.00
8313;DHT22;4194;43.408;24.626;2023-01-19T01:06:03;14.00;87.90
8313;DHT22;4194;43.408;24.626;2023-01-19T01:08:31;11.70;86.40
8313;DHT22;4194;43.408;24.626;2023-01-19T01:10:56;13.50;89.10
8313;DHT22;4194;43.408;24.626;2023-01-19T01:13:22;13.80;89.80
8313;DHT22;4194;43.408;24.626;2023-01-19T01:15:49;11.70;89.00
8313;DHT22;4194;43.408;24.626;2023-01-19T01:18:15;13.90;90.80
8313;DHT22;4194;43.408;24.626;2023-01-19T01:20:41;12.10;90.10
8313;DHT22;4194;43.408;24.626;2023-01-19T01:23:07;12.80;90.70
8313;DHT22;4194;43.408;24.626;2023-01-19T01:25:32;13.10;90.90
8313;DHT22;4194;43.408;24.626;2023-01-19T01:28:02;12.20;90.40
8313;DHT22;4194;43.408;24.626;2023-01-19T01:30:30;12.90;90.80
8313;DHT22;4194;43.408;24.626;2023-01-19T01:32:55;12.90;90.30
8313;DHT22;4194;43.408;24.626;2023-01-19T01:35:21;12.70;90.10
8313;DHT22;4194;43.408;24.626;2023-01-19T01:37:46;13.30;90.00
8313;DHT22;4194;43.408;24.626;2023-01-19T01:40:15;13.30;89.30
8313;DHT22;4194;43.408;24.626;2023-01-19T01:42:41;12.70;88.80
8313;DHT22;4194;43.408;24.626;2023-01-19T01:45:32;14.00;89.50
8313;DHT22;4194;43.408;24.626;2023-01-19T01:48:06;13.00;88.30
8313;DHT22;4194;43.408;24.626;2023-01-19T01:50:36;11.40;86.30
8313;DHT22;4194;43.408;24.626;2023-01-19T01:53:10;13.30;88.30
8313;DHT22;4194;43.408;24.626;2023-01-19T01:55:45;13.10;88.00
8313;DHT22;4194;43.408;24.626;2023-01-19T01:58:14;14.20;88.40
8313;DHT22;4194;43.408;24.626;2023-01-19T02:03:26;13.80;87.60
8313;DHT22;4194;43.408;24.626;2023-01-19T02:05:59;13.30;87.10
8313;DHT22;4194;43.408;24.626;2023-01-19T02:08:34;13.90;87.50
8313;DHT22;4194;43.408;24.626;2023-01-19T02:11:20;13.30;86.70
8313;DHT22;4194;43.408;24.626;2023-01-19T02:14:05;14.70;87.90
8313;DHT22;4194;43.408;24.626;2023-01-19T02:16:31;15.00;88.20
8313;DHT22;4194;43.408;24.626;2023-01-19T02:18:57;12.70;85.80
8313;DHT22;4194;43.408;24.626;2023-01-19T02:21:35;13.00;86.00
8313;DHT22;4194;43.408;24.626;2023-01-19T02:24:05;13.40;86.20
8313;DHT22;4194;43.408;24.626;2023-01-19T02:26:38;11.50;83.90
8313;DHT22;4194;43.408;24.626;2023-01-19T02:29:07;13.30;85.50
8313;DHT22;4194;43.408;24.626;2023-01-19T02:31:35;13.30;85.30
8313;DHT22;4194;43.408;24.626;2023-01-19T02:34:02;12.70;84.70
8313;DHT22;4194;43.408;24.626;2023-01-19T02:36:37;13.20;85.30
8313;DHT22;4194;43.408;24.626;2023-01-19T02:39:05;12.60;85.10
8313;DHT22;4194;43.408;24.626;2023-01-19T02:41:37;13.20;85.80
8313;DHT22;4194;43.408;24.626;2023-01-19T02:44:03;12.90;85.40
8313;DHT22;4194;43.408;24.626;2023-01-19T02:46:30;14.10;86.90
8313;DHT22;4194;43.408;24.626;2023-01-19T02:48:59;14.10;86.90
8313;DHT22;4194;43.408;24.626;2023-01-19T02:51:26;13.30;86.30
8313;DHT22;4194;43.408;24.626;2023-01-19T02:59:53;13.30;86.50
8313;DHT22;4194;43.408;24.626;2023-01-19T03:13:26;12.90;86.40
8313;DHT22;4194;43.408;24.626;2023-01-19T03:18:31;13.90;87.80
8313;DHT22;4194;43.408;24.626;2023-01-19T03:21:00;11.80;85.90
8313;DHT22;4194;43.408;24.626;2023-01-19T03:23:30;14.20;88.70
8313;DHT22;4194;43.408;24.626;2023-01-19T03:25:58;13.90;88.60
8313;DHT22;4194;43.408;24.626;2023-01-19T03:28:27;13.50;88.50
8313;DHT22;4194;43.408;24.626;2023-01-19T03:31:05;13.90;88.90
8313;DHT22;4194;43.408;24.626;2023-01-19T03:33:36;13.60;89.00
8313;DHT22;4194;43.408;24.626;2023-01-19T03:36:11;13.20;89.10
8313;DHT22;4194;43.408;24.626;2023-01-19T03:38:40;13.40;89.10
8313;DHT22;4194;43.408;24.626;2023-01-19T03:41:11;14.70;90.10
8313;DHT22;4194;43.408;24.626;2023-01-19T03:43:38;12.30;87.60
8313;DHT22;4194;43.408;24.626;2023-01-19T03:46:05;12.70;87.90
8313;DHT22;4194;43.408;24.626;2023-01-19T03:48:32;12.20;86.90
8313;DHT22;4194;43.408;24.626;2023-01-19T03:51:03;11.80;86.60
8313;DHT22;4194;43.408;24.626;2023-01-19T03:55:55;11.40;85.70
8313;DHT22;4194;43.408;24.626;2023-01-19T03:58:21;13.30;87.20
8313;DHT22;4194;43.408;24.626;2023-01-19T04:00:47;14.00;88.30
8313;DHT22;4194;43.408;24.626;2023-01-19T04:03:15;12.80;87.20
8313;DHT22;4194;43.408;24.626;2023-01-19T04:05:41;13.00;87.10
8313;DHT22;4194;43.408;24.626;2023-01-19T04:08:07;13.20;86.80
8313;DHT22;4194;43.408;24.626;2023-01-19T04:10:32;13.30;87.40
8313;DHT22;4194;43.408;24.626;2023-01-19T04:13:00;12.80;87.30
8313;DHT22;4194;43.408;24.626;2023-01-19T04:15:27;11.90;86.30
8313;DHT22;4194;43.408;24.626;2023-01-19T04:17:53;13.00;87.50
8313;DHT22;4194;43.408;24.626;2023-01-19T04:20:19;13.50;88.00
8313;DHT22;4194;43.408;24.626;2023-01-19T04:25:12;12.60;87.60
8313;DHT22;4194;43.408;24.626;2023-01-19T04:27:37;12.20;87.80
8313;DHT22;4194;43.408;24.626;2023-01-19T04:30:03;12.80;88.00
8313;DHT22;4194;43.408;24.626;2023-01-19T04:32:30;11.90;87.00
8313;DHT22;4194;43.408;24.626;2023-01-19T04:34:56;11.90;86.90
8313;DHT22;4194;43.408;24.626;2023-01-19T04:37:22;11.70;86.10
8313;DHT22;4194;43.408;24.626;2023-01-19T04:39:48;12.30;87.00
8313;DHT22;4194;43.408;24.626;2023-01-19T04:42:13;11.90;86.70
8313;DHT22;4194;43.408;24.626;2023-01-19T04:44:39;12.40;87.00
8313;DHT22;4194;43.408;24.626;2023-01-19T04:47:05;13.20;87.40
8313;DHT22;4194;43.408;24.626;2023-01-19T04:49:30;12.80;87.70
8313;DHT22;4194;43.408;24.626;2023-01-19T04:51:56;12.20;86.80
8313;DHT22;4194;43.408;24.626;2023-01-19T04:54:22;12.50;87.10
8313;DHT22;4194;43.408;24.626;2023-01-19T04:56:48;12.30;86.10
8313;DHT22;4194;43.408;24.626;2023-01-19T04:59:13;12.20;85.30
8313;DHT22;4194;43.408;24.626;2023-01-19T05:01:39;12.40;85.50
8313;DHT22;4194;43.408;24.626;2023-01-19T05:04:05;13.80;86.90
8313;DHT22;4194;43.408;24.626;2023-01-19T05:06:32;12.70;85.30
8313;DHT22;4194;43.408;24.626;2023-01-19T05:08:58;12.40;85.00
8313;DHT22;4194;43.408;24.626;2023-01-19T05:11:24;11.00;83.40
8313;DHT22;4194;43.408;24.626;2023-01-19T05:13:50;13.50;85.70
8313;DHT22;4194;43.408;24.626;2023-01-19T05:16:16;12.10;84.20
8313;DHT22;4194;43.408;24.626;2023-01-19T05:21:07;12.50;84.20
8313;DHT22;4194;43.408;24.626;2023-01-19T05:23:33;12.40;84.40
8313;DHT22;4194;43.408;24.626;2023-01-19T05:26:00;11.60;84.00
8313;DHT22;4194;43.408;24.626;2023-01-19T05:28:31;11.10;83.60
8313;DHT22;4194;43.408;24.626;2023-01-19T05:30:57;12.30;85.20
8313;DHT22;4194;43.408;24.626;2023-01-19T05:33:23;10.90;83.50
8313;DHT22;4194;43.408;24.626;2023-01-19T05:35:50;11.50;84.70
8313;DHT22;4194;43.408;24.626;2023-01-19T05:38:17;11.50;84.40
8313;DHT22;4194;43.408;24.626;2023-01-19T05:40:42;13.40;86.30
8313;DHT22;4194;43.408;24.626;2023-01-19T05:43:08;12.10;85.00
8313;DHT22;4194;43.408;24.626;2023-01-19T05:45:34;11.60;84.80
8313;DHT22;4194;43.408;24.626;2023-01-19T05:48:00;11.50;84.40
8313;DHT22;4194;43.408;24.626;2023-01-19T05:52:52;10.90;83.70
8313;DHT22;4194;43.408;24.626;2023-01-19T05:55:19;12.00;85.20
8313;DHT22;4194;43.408;24.626;2023-01-19T05:57:44;13.00;85.90
8313;DHT22;4194;43.408;24.626;2023-01-19T06:00:11;11.90;85.00
8313;DHT22;4194;43.408;24.626;2023-01-19T06:02:37;11.20;84.60
8313;DHT22;4194;43.408;24.626;2023-01-19T06:05:03;11.60;85.10
8313;DHT22;4194;43.408;24.626;2023-01-19T06:07:29;12.00;85.60
8313;DHT22;4194;43.408;24.626;2023-01-19T06:09:56;12.50;85.80
8313;DHT22;4194;43.408;24.626;2023-01-19T06:12:22;11.40;84.30
8313;DHT22;4194;43.408;24.626;2023-01-19T06:14:48;13.00;85.70
8313;DHT22;4194;43.408;24.626;2023-01-19T06:19:39;11.70;83.50
8313;DHT22;4194;43.408;24.626;2023-01-19T06:22:06;12.30;84.10
8313;DHT22;4194;43.408;24.626;2023-01-19T06:24:32;13.30;84.60
8313;DHT22;4194;43.408;24.626;2023-01-19T06:26:58;12.40;83.10
8313;DHT22;4194;43.408;24.626;2023-01-19T06:29:28;12.60;82.50
8313;DHT22;4194;43.408;24.626;2023-01-19T06:31:54;13.00;83.00
8313;DHT22;4194;43.408;24.626;2023-01-19T06:34:20;12.30;80.50
8313;DHT22;4194;43.408;24.626;2023-01-19T06:36:46;15.10;82.30
8313;DHT22;4194;43.408;24.626;2023-01-19T06:39:12;13.50;80.70
8313;DHT22;4194;43.408;24.626;2023-01-19T06:41:38;14.10;80.90
8313;DHT22;4194;43.408;24.626;2023-01-19T06:44:04;13.30;78.80
8313;DHT22;4194;43.408;24.626;2023-01-19T06:46:30;13.40;78.60
8313;DHT22;4194;43.408;24.626;2023-01-19T06:48:56;14.70;79.50
8313;DHT22;4194;43.408;24.626;2023-01-19T06:51:22;15.40;80.10
8313;DHT22;4194;43.408;24.626;2023-01-19T06:56:14;14.40;78.80
8313;DHT22;4194;43.408;24.626;2023-01-19T06:58:40;14.10;78.20
8313;DHT22;4194;43.408;24.626;2023-01-19T07:01:07;13.30;77.20
8313;DHT22;4194;43.408;24.626;2023-01-19T07:03:34;13.40;77.90
8313;DHT22;4194;43.408;24.626;2023-01-19T07:06:00;14.70;79.20
8313;DHT22;4194;43.408;24.626;2023-01-19T07:08:27;14.80;79.10
8313;DHT22;4194;43.408;24.626;2023-01-19T07:11:05;13.90;78.40
8313;DHT22;4194;43.408;24.626;2023-01-19T07:13:34;14.80;79.80
8313;DHT22;4194;43.408;24.626;2023-01-19T07:16:05;15.30;80.60
8313;DHT22;4194;43.408;24.626;2023-01-19T07:18:31;13.40;78.50
8313;DHT22;4194;43.408;24.626;2023-01-19T07:20:57;14.40;79.80
8313;DHT22;4194;43.408;24.626;2023-01-19T07:25:49;15.00;79.40
8313;DHT22;4194;43.408;24.626;2023-01-19T07:28:15;14.70;79.50
8313;DHT22;4194;43.408;24.626;2023-01-19T07:30:44;15.60;79.90
8313;DHT22;4194;43.408;24.626;2023-01-19T07:33:12;14.50;78.60
8313;DHT22;4194;43.408;24.626;2023-01-19T07:35:38;15.50;79.20
8313;DHT22;4194;43.408;24.626;2023-01-19T07:38:03;15.40;78.80
8313;DHT22;4194;43.408;24.626;2023-01-19T07:40:29;14.70;77.50
8313;DHT22;4194;43.408;24.626;2023-01-19T07:42:55;15.50;77.90
8313;DHT22;4194;43.408;24.626;2023-01-19T07:45:21;15.20;77.60
8313;DHT22;4194;43.408;24.626;2023-01-19T07:47:47;15.60;77.40
8313;DHT22;4194;43.408;24.626;2023-01-19T07:50:15;15.70;77.10
8313;DHT22;4194;43.408;24.626;2023-01-19T07:52:41;15.60;76.20
8313;DHT22;4194;43.408;24.626;2023-01-19T07:55:07;15.00;76.10
8313;DHT22;4194;43.408;24.626;2023-01-19T07:57:33;15.40;75.30
8313;DHT22;4194;43.408;24.626;2023-01-19T08:04:52;16.80;75.30
8313;DHT22;4194;43.408;24.626;2023-01-19T08:09:43;17.00;74.50
8313;DHT22;4194;43.408;24.626;2023-01-19T08:12:09;17.00;74.60
8313;DHT22;4194;43.408;24.626;2023-01-19T08:14:35;16.10;73.80
8313;DHT22;4194;43.408;24.626;2023-01-19T08:17:02;15.60;72.80
8313;DHT22;4194;43.408;24.626;2023-01-19T08:19:28;16.20;73.20
8313;DHT22;4194;43.408;24.626;2023-01-19T08:21:54;15.00;71.60
8313;DHT22;4194;43.408;24.626;2023-01-19T08:24:22;15.80;72.70
8313;DHT22;4194;43.408;24.626;2023-01-19T08:26:57;16.40;73.90
8313;DHT22;4194;43.408;24.626;2023-01-19T08:29:23;17.60;74.50
8313;DHT22;4194;43.408;24.626;2023-01-19T08:31:49;15.50;72.80
8313;DHT22;4194;43.408;24.626;2023-01-19T08:34:15;17.70;74.50
8313;DHT22;4194;43.408;24.626;2023-01-19T08:36:40;15.40;71.20
8313;DHT22;4194;43.408;24.626;2023-01-19T08:39:06;16.40;70.60
8313;DHT22;4194;43.408;24.626;2023-01-19T08:41:32;16.90;68.30
8313;DHT22;4194;43.408;24.626;2023-01-19T08:43:57;17.00;67.30
8313;DHT22;4194;43.408;24.626;2023-01-19T08:46:23;18.10;68.20
8313;DHT22;4194;43.408;24.626;2023-01-19T08:51:15;17.90;66.10
8313;DHT22;4194;43.408;24.626;2023-01-19T08:53:42;19.00;66.80
8313;DHT22;4194;43.408;24.626;2023-01-19T08:56:09;19.10;65.50
8313;DHT22;4194;43.408;24.626;2023-01-19T08:58:42;17.00;63.10
8313;DHT22;4194;43.408;24.626;2023-01-19T09:01:09;18.00;65.00
8313;DHT22;4194;43.408;24.626;2023-01-19T09:03:35;16.70;62.80
8313;DHT22;4194;43.408;24.626;2023-01-19T09:06:04;19.70;66.70
8313;DHT22;4194;43.408;24.626;2023-01-19T09:08:30;17.30;65.30
8313;DHT22;4194;43.408;24.626;2023-01-19T09:10:56;17.20;62.80
8313;DHT22;4194;43.408;24.626;2023-01-19T09:13:22;18.30;64.20
8313;DHT22;4194;43.408;24.626;2023-01-19T09:15:47;17.30;62.60
8313;DHT22;4194;43.408;24.626;2023-01-19T09:18:16;18.20;63.50
8313;DHT22;4194;43.408;24.626;2023-01-19T09:20:44;19.40;61.90
8313;DHT22;4194;43.408;24.626;2023-01-19T09:23:11;19.10;60.50
8313;DHT22;4194;43.408;24.626;2023-01-19T09:25:39;19.50;61.50
8313;DHT22;4194;43.408;24.626;2023-01-19T09:28:23;19.50;60.10
8313;DHT22;4194;43.408;24.626;2023-01-19T09:30:50;19.60;60.20
8313;DHT22;4194;43.408;24.626;2023-01-19T09:33:17;20.10;60.90
8313;DHT22;4194;43.408;24.626;2023-01-19T09:35:45;19.90;59.80
8313;DHT22;4194;43.408;24.626;2023-01-19T09:38:12;19.80;59.20
8313;DHT22;4194;43.408;24.626;2023-01-19T09:40:46;20.10;59.00
8313;DHT22;4194;43.408;24.626;2023-01-19T09:43:36;19.20;58.90
8313;DHT22;4194;43.408;24.626;2023-01-19T09:46:14;19.30;58.40
8313;DHT22;4194;43.408;24.626;2023-01-19T09:48:51;19.40;59.00
8313;DHT22;4194;43.408;24.626;2023-01-19T09:51:18;19.70;58.50
8313;DHT22;4194;43.408;24.626;2023-01-19T09:54:14;19.10;58.10
8313;DHT22;4194;43.408;24.626;2023-01-19T09:56:41;19.20;58.20
8313;DHT22;4194;43.408;24.626;2023-01-19T09:59:28;20.00;57.80
8313;DHT22;4194;43.408;24.626;2023-01-19T10:07:44;19.90;56.70
8313;DHT22;4194;43.408;24.626;2023-01-19T10:10:25;20.60;56.70
8313;DHT22;4194;43.408;24.626;2023-01-19T10:15:52;21.40;55.50
8313;DHT22;4194;43.408;24.626;2023-01-19T10:18:23;21.80;55.10
8313;DHT22;4194;43.408;24.626;2023-01-19T10:25:59;20.50;52.70
8313;DHT22;4194;43.408;24.626;2023-01-19T10:28:26;21.80;53.50
8313;DHT22;4194;43.408;24.626;2023-01-19T10:30:53;23.10;51.80
8313;DHT22;4194;43.408;24.626;2023-01-19T10:33:19;22.10;51.50
8313;DHT22;4194;43.408;24.626;2023-01-19T10:35:45;22.30;49.60
8313;DHT22;4194;43.408;24.626;2023-01-19T10:38:14;22.90;49.30
8313;DHT22;4194;43.408;24.626;2023-01-19T10:40:59;21.70;48.10
8313;DHT22;4194;43.408;24.626;2023-01-19T10:46:05;23.10;48.30
8313;DHT22;4194;43.408;24.626;2023-01-19T10:48:39;24.70;48.60
8313;DHT22;4194;43.408;24.626;2023-01-19T10:51:08;23.50;46.50
8313;DHT22;4194;43.408;24.626;2023-01-19T10:53:34;23.60;45.70
8313;DHT22;4194;43.408;24.626;2023-01-19T11:01:19;23.30;45.20
8313;DHT22;4194;43.408;24.626;2023-01-19T11:03:46;23.50;45.30
8313;DHT22;4194;43.408;24.626;2023-01-19T11:08:41;24.30;46.30
8313;DHT22;4194;43.408;24.626;2023-01-19T11:11:08;23.10;45.60
8313;DHT22;4194;43.408;24.626;2023-01-19T11:13:34;22.20;44.00
8313;DHT22;4194;43.408;24.626;2023-01-19T11:16:04;23.80;46.10
8313;DHT22;4194;43.408;24.626;2023-01-19T11:18:36;23.90;44.80
8313;DHT22;4194;43.408;24.626;2023-01-19T11:21:15;24.40;45.00
8313;DHT22;4194;43.408;24.626;2023-01-19T11:23:48;23.90;44.60
8313;DHT22;4194;43.408;24.626;2023-01-19T11:28:56;23.00;43.00
8313;DHT22;4194;43.408;24.626;2023-01-19T11:33:54;24.60;44.80
8313;DHT22;4194;43.408;24.626;2023-01-19T11:36:25;22.90;44.60
8313;DHT22;4194;43.408;24.626;2023-01-19T11:38:56;22.50;44.10
8313;DHT22;4194;43.408;24.626;2023-01-19T11:41:32;25.20;46.30
8313;DHT22;4194;43.408;24.626;2023-01-19T11:46:44;25.10;46.50
8313;DHT22;4194;43.408;24.626;2023-01-19T11:52:30;23.30;45.00
8313;DHT22;4194;43.408;24.626;2023-01-19T11:55:04;23.00;46.40
8313;DHT22;4194;43.408;24.626;2023-01-19T11:57:31;23.10;45.70
8313;DHT22;4194;43.408;24.626;2023-01-19T11:59:57;23.10;46.50
8313;DHT22;4194;43.408;24.626;2023-01-19T12:02:34;23.20;47.00
8313;DHT22;4194;43.408;24.626;2023-01-19T12:05:11;23.20;46.30
8313;DHT22;4194;43.408;24.626;2023-01-19T12:07:38;24.70;48.00
8313;DHT22;4194;43.408;24.626;2023-01-19T12:12:42;23.70;46.00
8313;DHT22;4194;43.408;24.626;2023-01-19T12:15:36;24.60;45.70
8313;DHT22;4194;43.408;24.626;2023-01-19T12:18:05;24.40;45.30
8313;DHT22;4194;43.408;24.626;2023-01-19T12:20:42;25.00;43.10
8313;DHT22;4194;43.408;24.626;2023-01-19T12:28:42;25.30;40.70
8313;DHT22;4194;43.408;24.626;2023-01-19T12:31:08;27.90;41.70
8313;DHT22;4194;43.408;24.626;2023-01-19T12:33:38;28.10;40.10
8313;DHT22;4194;43.408;24.626;2023-01-19T12:49:29;29.10;37.70
8313;DHT22;4194;43.408;24.626;2023-01-19T12:55:06;25.60;40.30
8313;DHT22;4194;43.408;24.626;2023-01-19T12:57:52;25.40;41.00
8313;DHT22;4194;43.408;24.626;2023-01-19T13:00:29;22.80;40.40
8313;DHT22;4194;43.408;24.626;2023-01-19T13:03:46;23.00;41.80
8313;DHT22;4194;43.408;24.626;2023-01-19T13:05:53;24.50;43.60
8313;DHT22;4194;43.408;24.626;2023-01-19T13:11:15;23.00;42.80
8313;DHT22;4194;43.408;24.626;2023-01-19T13:18:50;22.10;43.80
8313;DHT22;4194;43.408;24.626;2023-01-19T13:21:32;22.80;43.50
8313;DHT22;4194;43.408;24.626;2023-01-19T13:24:05;21.90;43.10
8313;DHT22;4194;43.408;24.626;2023-01-19T13:29:13;22.50;43.70
8313;DHT22;4194;43.408;24.626;2023-01-19T13:31:41;22.50;44.00
8313;DHT22;4194;43.408;24.626;2023-01-19T13:34:21;22.50;43.80
8313;DHT22;4194;43.408;24.626;2023-01-19T13:36:52;20.70;42.50
8313;DHT22;4194;43.408;24.626;2023-01-19T13:39:36;21.90;43.80
8313;DHT22;4194;43.408;24.626;2023-01-19T13:42:14;21.60;43.80
8313;DHT22;4194;43.408;24.626;2023-01-19T13:44:46;23.40;45.20
8313;DHT22;4194;43.408;24.626;2023-01-19T13:47:25;21.70;44.10
8313;DHT22;4194;43.408;24.626;2023-01-19T13:49:56;22.30;43.90
8313;DHT22;4194;43.408;24.626;2023-01-19T13:52:28;23.30;44.30
8313;DHT22;4194;43.408;24.626;2023-01-19T13:54:55;20.90;42.00
8313;DHT22;4194;43.408;24.626;2023-01-19T14:03:12;21.80;43.70
8313;DHT22;4194;43.408;24.626;2023-01-19T14:05:41;23.20;44.10
8313;DHT22;4194;43.408;24.626;2023-01-19T14:10:35;21.60;43.60
8313;DHT22;4194;43.408;24.626;2023-01-19T14:13:03;22.60;44.00
8313;DHT22;4194;43.408;24.626;2023-01-19T14:15:32;21.40;43.30
8313;DHT22;4194;43.408;24.626;2023-01-19T14:20:39;19.70;41.90
8313;DHT22;4194;43.408;24.626;2023-01-19T14:23:06;19.30;41.90
8313;DHT22;4194;43.408;24.626;2023-01-19T14:25:51;20.80;43.60
8313;DHT22;4194;43.408;24.626;2023-01-19T14:28:34;20.60;44.10
8313;DHT22;4194;43.408;24.626;2023-01-19T14:31:24;20.80;44.60
8313;DHT22;4194;43.408;24.626;2023-01-19T14:33:53;20.50;43.80
8313;DHT22;4194;43.408;24.626;2023-01-19T14:36:36;20.20;44.00
8313;DHT22;4194;43.408;24.626;2023-01-19T14:39:05;21.30;45.20
8313;DHT22;4194;43.408;24.626;2023-01-19T14:41:45;20.20;44.90
8313;DHT22;4194;43.408;24.626;2023-01-19T14:46:47;19.60;45.10
8313;DHT22;4194;43.408;24.626;2023-01-19T14:49:36;20.10;45.70
8313;DHT22;4194;43.408;24.626;2023-01-19T14:52:05;19.60;45.70
8313;DHT22;4194;43.408;24.626;2023-01-19T14:54:37;20.00;46.80
8313;DHT22;4194;43.408;24.626;2023-01-19T14:57:04;19.40;46.70
8313;DHT22;4194;43.408;24.626;2023-01-19T14:59:30;19.80;47.70
8313;DHT22;4194;43.408;24.626;2023-01-19T15:01:56;19.70;48.20
8313;DHT22;4194;43.408;24.626;2023-01-19T15:04:24;19.40;49.00
8313;DHT22;4194;43.408;24.626;2023-01-19T15:06:50;19.70;49.60
8313;DHT22;4194;43.408;24.626;2023-01-19T15:09:16;18.60;49.00
8313;DHT22;4194;43.408;24.626;2023-01-19T15:11:42;19.50;50.30
8313;DHT22;4194;43.408;24.626;2023-01-19T15:14:13;18.30;50.50
8313;DHT22;4194;43.408;24.626;2023-01-19T15:16:40;18.30;51.60
8313;DHT22;4194;43.408;24.626;2023-01-19T15:19:12;18.70;53.00
8313;DHT22;4194;43.408;24.626;2023-01-19T15:21:39;17.50;52.50
8313;DHT22;4194;43.408;24.626;2023-01-19T15:24:10;17.10;53.30
8313;DHT22;4194;43.408;24.626;2023-01-19T15:26:38;17.60;54.10
8313;DHT22;4194;43.408;24.626;2023-01-19T15:29:24;17.10;55.00
8313;DHT22;4194;43.408;24.626;2023-01-19T15:34:41;16.90;55.50
8313;DHT22;4194;43.408;24.626;2023-01-19T15:37:07;18.10;57.10
8313;DHT22;4194;43.408;24.626;2023-01-19T15:39:33;17.60;57.20
8313;DHT22;4194;43.408;24.626;2023-01-19T15:41:59;17.30;56.90
8313;DHT22;4194;43.408;24.626;2023-01-19T15:44:25;16.20;56.00
8313;DHT22;4194;43.408;24.626;2023-01-19T15:49:17;16.70;56.70
8313;DHT22;4194;43.408;24.626;2023-01-19T15:51:43;17.20;57.40
8313;DHT22;4194;43.408;24.626;2023-01-19T15:54:12;16.40;57.10
8313;DHT22;4194;43.408;24.626;2023-01-19T15:56:39;14.90;56.20
8313;DHT22;4194;43.408;24.626;2023-01-19T15:59:05;16.20;57.70
8313;DHT22;4194;43.408;24.626;2023-01-19T16:01:31;16.80;58.60
8313;DHT22;4194;43.408;24.626;2023-01-19T16:04:02;15.20;57.30
8313;DHT22;4194;43.408;24.626;2023-01-19T16:06:30;16.00;58.50
8313;DHT22;4194;43.408;24.626;2023-01-19T16:11:31;15.10;57.70
8313;DHT22;4194;43.408;24.626;2023-01-19T16:13:57;15.70;58.60
8313;DHT22;4194;43.408;24.626;2023-01-19T16:16:24;15.40;58.60
8313;DHT22;4194;43.408;24.626;2023-01-19T16:18:51;15.20;59.30
8313;DHT22;4194;43.408;24.626;2023-01-19T16:23:43;16.40;61.30
8313;DHT22;4194;43.408;24.626;2023-01-19T16:26:40;15.20;62.70
8313;DHT22;4194;43.408;24.626;2023-01-19T16:29:07;15.50;69.40
8313;DHT22;4194;43.408;24.626;2023-01-19T16:31:37;15.20;70.80
8313;DHT22;4194;43.408;24.626;2023-01-19T16:34:02;15.10;73.40
8313;DHT22;4194;43.408;24.626;2023-01-19T16:36:30;14.80;78.20
8313;DHT22;4194;43.408;24.626;2023-01-19T16:41:31;14.40;82.20
8313;DHT22;4194;43.408;24.626;2023-01-19T16:43:57;14.40;85.10
8313;DHT22;4194;43.408;24.626;2023-01-19T16:46:31;14.50;87.40
8313;DHT22;4194;43.408;24.626;2023-01-19T16:49:00;13.40;89.60
8313;DHT22;4194;43.408;24.626;2023-01-19T16:51:26;15.20;91.30
8313;DHT22;4194;43.408;24.626;2023-01-19T16:53:52;15.30;92.40
8313;DHT22;4194;43.408;24.626;2023-01-19T16:56:18;14.10;92.60
8313;DHT22;4194;43.408;24.626;2023-01-19T16:58:44;14.80;93.40
8313;DHT22;4194;43.408;24.626;2023-01-19T17:01:15;14.10;93.90
8313;DHT22;4194;43.408;24.626;2023-01-19T17:03:42;13.40;94.20
8313;DHT22;4194;43.408;24.626;2023-01-19T17:06:10;12.90;94.40
8313;DHT22;4194;43.408;24.626;2023-01-19T17:08:36;13.10;95.40
8313;DHT22;4194;43.408;24.626;2023-01-19T17:11:12;12.80;95.70
8313;DHT22;4194;43.408;24.626;2023-01-19T17:13:38;12.90;96.20
8313;DHT22;4194;43.408;24.626;2023-01-19T17:18:32;12.60;97.60
8313;DHT22;4194;43.408;24.626;2023-01-19T17:21:05;13.70;98.60
8313;DHT22;4194;43.408;24.626;2023-01-19T17:23:31;14.50;99.60
8313;DHT22;4194;43.408;24.626;2023-01-19T17:25:58;13.00;99.50
8313;DHT22;4194;43.408;24.626;2023-01-19T17:28:24;12.40;99.90
8313;DHT22;4194;43.408;24.626;2023-01-19T17:30:50;13.20;99.90
8313;DHT22;4194;43.408;24.626;2023-01-19T17:33:21;11.60;99.90
8313;DHT22;4194;43.408;24.626;2023-01-19T17:35:47;11.30;99.90
8313;DHT22;4194;43.408;24.626;2023-01-19T17:38:13;13.50;99.90
8313;DHT22;4194;43.408;24.626;2023-01-19T17:43:06;13.70;99.90
8313;DHT22;4194;43.408;24.626;2023-01-19T17:45:35;13.60;99.90
8313;DHT22;4194;43.408;24.626;2023-01-19T17:48:03;11.40;99.90
8313;DHT22;4194;43.408;24.626;2023-01-19T17:50:30;13.40;99.90
8313;DHT22;4194;43.408;24.626;2023-01-19T17:52:56;11.50;99.90
8313;DHT22;4194;43.408;24.626;2023-01-19T17:55:22;11.60;99.90
8313;DHT22;4194;43.408;24.626;2023-01-19T17:57:48;13.40;99.90
8313;DHT22;4194;43.408;24.626;2023-01-19T18:00:14;12.40;99.90
8313;DHT22;4194;43.408;24.626;2023-01-19T18:02:40;11.90;99.90
8313;DHT22;4194;43.408;24.626;2023-01-19T18:05:06;13.80;99.90
8313;DHT22;4194;43.408;24.626;2023-01-19T18:10:03;11.60;99.90
8313;DHT22;4194;43.408;24.626;2023-01-19T18:12:31;11.00;99.90
8313;DHT22;4194;43.408;24.626;2023-01-19T18:14:56;13.00;99.90
8313;DHT22;4194;43.408;24.626;2023-01-19T18:17:22;12.40;99.90
8313;DHT22;4194;43.408;24.626;2023-01-19T18:22:14;11.60;99.90
8313;DHT22;4194;43.408;24.626;2023-01-19T18:24:40;12.10;99.90
8313;DHT22;4194;43.408;24.626;2023-01-19T18:27:08;10.90;99.90
8313;DHT22;4194;43.408;24.626;2023-01-19T18:29:33;12.50;99.90
8313;DHT22;4194;43.408;24.626;2023-01-19T18:34:25;12.10;99.90